Time;durP1;ratioP1;P1;durP2;ratioP2;P2;SDS_P1;SDS_P2;PMS_P1;PMS_P2;Temp;Humidity;BMP_temperature;BMP_pressure;BME280_temperature;BME280_humidity;BME280_pressure;Samples;Min_cycle;Max_cycle;Signal;HPM_P1;HPM_P2
2024/03/05 00:00:58;;;;;;;11.10;6.65;;;;;;;;;;5034790;28;20052;-63
2024/03/05 00:03:24;;;;;;;10.88;6.28;;;;;;;;;;5032977;28;20407;-61
2024/03/05 00:05:50;;;;;;;13.93;6.13;;;;;;;;;;5034490;28;20099;-63
2024/03/05 00:08:15;;;;;;;11.02;5.78;;;;;;;;;;5033293;28;20491;-63
2024/03/05 00:10:41;;;;;;;10.23;6.47;;;;;;;;;;5033087;28;20034;-64
2024/03/05 00:13:07;;;;;;;13.88;6.22;;;;;;;;;;5033122;28;20061;-62
2024/03/05 00:15:33;;;;;;;10.18;5.70;;;;;;;;;;5033149;28;20064;-62
2024/03/05 00:17:58;;;;;;;10.40;5.63;;;;;;;;;;5034601;28;20042;-60
2024/03/05 00:20:24;;;;;;;13.73;6.40;;;;;;;;;;5033489;28;20032;-63
2024/03/05 00:22:50;;;;;;;12.70;6.50;;;;;;;;;;5034350;28;20041;-63
2024/03/05 00:25:16;;;;;;;13.00;6.78;;;;;;;;;;5034579;28;20080;-62
2024/03/05 00:27:48;;;;;;;13.45;6.68;;;;;;;;;;5032721;28;20049;-63
2024/03/05 00:30:13;;;;;;;15.23;7.45;;;;;;;;;;5033931;28;20041;-63
2024/03/05 00:32:39;;;;;;;15.07;7.30;;;;;;;;;;5033607;28;20072;-62
2024/03/05 00:35:06;;;;;;;11.20;6.78;;;;;;;;;;5016280;28;20514;-62
2024/03/05 00:37:31;;;;;;;13.25;7.35;;;;;;;;;;5032784;28;20034;-62
2024/03/05 00:39:58;;;;;;;13.32;7.20;;;;;;;;;;5034183;28;20045;-62
2024/03/05 00:42:23;;;;;;;12.43;6.93;;;;;;;;;;5033684;28;20029;-62
2024/03/05 00:44:49;;;;;;;16.20;7.78;;;;;;;;;;5034077;28;20497;-61
2024/03/05 00:47:14;;;;;;;11.65;6.93;;;;;;;;;;5033686;28;20057;-63
2024/03/05 00:49:40;;;;;;;11.63;6.38;;;;;;;;;;5033043;28;20056;-62
2024/03/05 00:52:06;;;;;;;11.50;6.68;;;;;;;;;;5033484;28;20454;-61
2024/03/05 00:54:31;;;;;;;14.93;7.68;;;;;;;;;;5033806;28;20037;-62
2024/03/05 00:56:57;;;;;;;15.07;7.57;;;;;;;;;;5033762;28;20029;-62
2024/03/05 00:59:22;;;;;;;15.95;7.30;;;;;;;;;;5033697;28;20041;-62
2024/03/05 01:01:48;;;;;;;15.60;8.13;;;;;;;;;;5032189;28;20039;-64
2024/03/05 01:04:14;;;;;;;11.25;6.38;;;;;;;;;;5033588;28;20124;-61
2024/03/05 01:06:46;;;;;;;12.52;7.15;;;;;;;;;;5033599;28;20124;-62
2024/03/05 01:09:16;;;;;;;15.05;7.75;;;;;;;;;;5033479;28;20084;-62
2024/03/05 01:11:42;;;;;;;12.00;6.63;;;;;;;;;;5031975;28;20423;-63
2024/03/05 01:14:08;;;;;;;13.35;6.82;;;;;;;;;;5033355;28;20044;-60
2024/03/05 01:16:33;;;;;;;15.63;7.13;;;;;;;;;;5033360;28;20041;-62
2024/03/05 01:18:59;;;;;;;15.20;7.25;;;;;;;;;;5033231;28;20486;-61
2024/03/05 01:21:25;;;;;;;12.50;6.75;;;;;;;;;;5033344;28;20029;-61
2024/03/05 01:23:51;;;;;;;9.55;6.18;;;;;;;;;;5032938;28;20501;-61
2024/03/05 01:26:17;;;;;;;15.70;7.38;;;;;;;;;;5031703;28;20042;-63
2024/03/05 01:28:43;;;;;;;12.23;6.15;;;;;;;;;;5032871;28;20037;-62
2024/03/05 01:31:08;;;;;;;12.25;6.95;;;;;;;;;;5031643;28;20063;-63
2024/03/05 01:33:36;;;;;;;13.15;7.47;;;;;;;;;;5014829;28;20088;-63
2024/03/05 01:36:03;;;;;;;11.13;7.63;;;;;;;;;;5032733;28;20510;-62
2024/03/05 01:38:29;;;;;;;14.82;7.07;;;;;;;;;;5031569;28;20041;-62
2024/03/05 01:40:55;;;;;;;15.77;7.75;;;;;;;;;;5032949;28;20038;-63
2024/03/05 01:43:20;;;;;;;13.63;6.72;;;;;;;;;;5032468;28;20503;-62
2024/03/05 01:45:46;;;;;;;13.35;7.38;;;;;;;;;;5032831;28;20084;-63
2024/03/05 01:48:12;;;;;;;13.38;7.20;;;;;;;;;;5031369;28;20029;-62
2024/03/05 01:50:38;;;;;;;12.63;7.05;;;;;;;;;;5032429;28;20069;-62
2024/03/05 01:53:10;;;;;;;15.77;8.00;;;;;;;;;;5031182;28;20096;-63
2024/03/05 01:55:37;;;;;;;17.58;8.73;;;;;;;;;;5032697;28;20037;-60
2024/03/05 01:58:03;;;;;;;14.90;8.10;;;;;;;;;;5030902;28;20045;-61
2024/03/05 02:00:31;;;;;;;12.45;7.43;;;;;;;;;;5031141;28;20128;-61
2024/03/05 02:02:56;;;;;;;14.30;6.75;;;;;;;;;;5032164;28;20203;-62
2024/03/05 02:05:22;;;;;;;15.98;7.63;;;;;;;;;;5030963;28;20116;-62
2024/03/05 02:07:48;;;;;;;10.32;6.40;;;;;;;;;;5032341;28;20124;-63
2024/03/05 02:10:14;;;;;;;10.50;7.00;;;;;;;;;;5030977;28;20038;-61
2024/03/05 02:12:40;;;;;;;10.98;6.70;;;;;;;;;;5032012;28;20056;-61
2024/03/05 02:15:11;;;;;;;15.50;6.55;;;;;;;;;;5032414;28;20033;-63
2024/03/05 02:17:40;;;;;;;15.15;6.45;;;;;;;;;;5032042;28;20506;-62
2024/03/05 02:20:09;;;;;;;14.02;7.35;;;;;;;;;;5014407;28;20029;-62
2024/03/05 02:22:38;;;;;;;15.87;7.07;;;;;;;;;;5031860;28;20072;-62
2024/03/05 02:25:05;;;;;;;13.98;7.47;;;;;;;;;;5032297;28;20038;-62
2024/03/05 02:27:31;;;;;;;12.82;7.55;;;;;;;;;;5014074;28;20124;-63
2024/03/05 02:29:57;;;;;;;17.15;7.85;;;;;;;;;;5032142;28;20033;-61
2024/03/05 02:32:23;;;;;;;12.85;7.28;;;;;;;;;;5030116;28;20096;-62
2024/03/05 02:34:52;;;;;;;13.55;7.90;;;;;;;;;;5032183;28;20029;-61
2024/03/05 02:37:18;;;;;;;15.98;7.68;;;;;;;;;;5031829;28;20427;-62
2024/03/05 02:39:44;;;;;;;12.63;7.30;;;;;;;;;;5032034;28;20034;-62
2024/03/05 02:42:09;;;;;;;10.90;6.80;;;;;;;;;;5031552;28;20566;-63
2024/03/05 02:44:35;;;;;;;13.85;7.15;;;;;;;;;;5030395;28;20044;-59
2024/03/05 02:47:02;;;;;;;12.18;7.28;;;;;;;;;;5031762;28;20029;-62
2024/03/05 02:49:28;;;;;;;15.80;7.70;;;;;;;;;;5030126;28;20044;-62
2024/03/05 02:51:54;;;;;;;15.35;7.60;;;;;;;;;;5031372;28;20128;-61
2024/03/05 02:54:21;;;;;;;16.00;7.32;;;;;;;;;;5031718;28;20049;-62
2024/03/05 02:56:46;;;;;;;17.30;7.75;;;;;;;;;;5030386;28;20056;-61
2024/03/05 02:59:12;;;;;;;19.17;7.93;;;;;;;;;;5031467;28;20029;-63
2024/03/05 03:01:38;;;;;;;14.70;7.32;;;;;;;;;;5031401;28;20084;-63
2024/03/05 03:04:05;;;;;;;15.57;7.85;;;;;;;;;;5031200;28;20084;-60
2024/03/05 03:06:31;;;;;;;12.70;7.55;;;;;;;;;;5031691;28;20386;-62
2024/03/05 03:08:56;;;;;;;16.25;8.20;;;;;;;;;;5031575;28;20116;-62
2024/03/05 03:11:22;;;;;;;16.80;7.97;;;;;;;;;;5032208;28;20499;-64
2024/03/05 03:13:48;;;;;;;12.90;7.65;;;;;;;;;;5034350;28;20071;-61
2024/03/05 03:16:14;;;;;;;14.82;7.75;;;;;;;;;;5035342;28;20080;-63
2024/03/05 03:18:42;;;;;;;16.33;8.38;;;;;;;;;;5034168;28;20042;-64
2024/03/05 03:21:08;;;;;;;13.40;7.50;;;;;;;;;;5034775;28;20029;-61
2024/03/05 03:23:34;;;;;;;13.23;7.45;;;;;;;;;;5035297;28;20524;-61
2024/03/05 03:26:00;;;;;;;15.43;7.85;;;;;;;;;;5034244;28;20509;-62
2024/03/05 03:28:26;;;;;;;16.50;7.68;;;;;;;;;;5034991;28;20093;-61
2024/03/05 03:30:55;;;;;;;17.73;8.55;;;;;;;;;;5035069;28;20041;-61
2024/03/05 03:33:21;;;;;;;17.42;9.10;;;;;;;;;;5034778;28;20072;-62
2024/03/05 03:35:47;;;;;;;13.68;7.85;;;;;;;;;;5035084;28;20082;-61
2024/03/05 03:38:13;;;;;;;13.77;7.47;;;;;;;;;;5034961;28;20060;-61
2024/03/05 03:40:42;;;;;;;15.93;7.63;;;;;;;;;;5035167;28;20422;-63
2024/03/05 03:43:10;;;;;;;12.00;7.75;;;;;;;;;;5033376;28;20064;-61
2024/03/05 03:45:36;;;;;;;12.68;7.72;;;;;;;;;;5034895;28;20045;-61
2024/03/05 03:48:03;;;;;;;18.80;8.50;;;;;;;;;;5033549;28;20041;-61
2024/03/05 03:50:29;;;;;;;16.38;9.00;;;;;;;;;;5033185;28;20033;-62
2024/03/05 03:52:54;;;;;;;15.55;7.70;;;;;;;;;;5034702;28;20115;-62
2024/03/05 03:55:20;;;;;;;13.40;7.65;;;;;;;;;;5035139;28;20037;-62
2024/03/05 03:57:47;;;;;;;15.23;7.82;;;;;;;;;;5034835;28;20492;-64
2024/03/05 04:00:16;;;;;;;19.33;8.38;;;;;;;;;;5033478;28;20037;-63
2024/03/05 04:02:43;;;;;;;16.17;8.02;;;;;;;;;;5034713;28;20095;-67
2024/03/05 04:05:11;;;;;;;15.27;8.20;;;;;;;;;;5034375;28;20120;-62
2024/03/05 04:07:37;;;;;;;14.45;8.10;;;;;;;;;;5033266;28;20068;-60
2024/03/05 04:10:06;;;;;;;12.77;7.57;;;;;;;;;;5032196;28;20037;-62
2024/03/05 04:12:33;;;;;;;13.30;7.82;;;;;;;;;;5031976;28;20096;-62
2024/03/05 04:14:59;;;;;;;14.48;8.63;;;;;;;;;;5031972;28;20538;-61
2024/03/05 04:17:26;;;;;;;15.85;8.63;;;;;;;;;;5031713;28;20034;-59
2024/03/05 04:19:51;;;;;;;17.45;8.75;;;;;;;;;;5029297;28;20040;-61
2024/03/05 04:22:18;;;;;;;15.23;9.05;;;;;;;;;;5031723;28;20042;-58
2024/03/05 04:24:52;;;;;;;20.95;8.77;;;;;;;;;;5033220;28;20063;-59
2024/03/05 04:27:22;;;;;;;14.80;8.43;;;;;;;;;;5032595;28;20411;-62
2024/03/05 04:29:53;;;;;;;17.40;9.38;;;;;;;;;;5034377;28;20037;-60
2024/03/05 04:32:22;;;;;;;17.67;8.82;;;;;;;;;;5033737;28;20184;-61
2024/03/05 04:34:50;;;;;;;12.98;7.82;;;;;;;;;;5032882;28;20517;-60
2024/03/05 04:37:18;;;;;;;19.95;9.43;;;;;;;;;;5033664;28;20521;-58
2024/03/05 04:39:45;;;;;;;16.23;8.88;;;;;;;;;;5032647;28;20120;-60
2024/03/05 04:42:11;;;;;;;14.25;7.97;;;;;;;;;;5033738;28;20099;-62
2024/03/05 04:44:41;;;;;;;19.13;8.48;;;;;;;;;;5032227;28;20041;-59
2024/03/05 04:47:07;;;;;;;17.27;8.57;;;;;;;;;;5048695;28;20041;-61
2024/03/05 04:49:32;;;;;;;15.27;8.32;;;;;;;;;;5032011;28;20029;-60
2024/03/05 04:51:58;;;;;;;14.93;7.90;;;;;;;;;;5031878;28;20049;-62
2024/03/05 04:54:23;;;;;;;16.73;8.93;;;;;;;;;;5033369;28;20061;-60
2024/03/05 04:56:49;;;;;;;15.60;8.68;;;;;;;;;;5033520;28;20038;-60
2024/03/05 04:59:14;;;;;;;14.43;8.50;;;;;;;;;;5031468;28;20402;-60
2024/03/05 05:01:40;;;;;;;15.15;8.38;;;;;;;;;;5033392;28;20040;-60
2024/03/05 05:04:06;;;;;;;14.85;8.32;;;;;;;;;;5031990;28;20494;-61
2024/03/05 05:06:34;;;;;;;18.83;8.85;;;;;;;;;;5032885;28;20033;-61
2024/03/05 05:09:00;;;;;;;14.77;8.10;;;;;;;;;;5033021;28;20505;-61
2024/03/05 05:11:27;;;;;;;17.55;8.55;;;;;;;;;;5032722;28;20037;-60
2024/03/05 05:13:53;;;;;;;16.02;8.98;;;;;;;;;;5031863;28;20114;-61
2024/03/05 05:16:18;;;;;;;19.73;9.38;;;;;;;;;;5032783;28;20491;-62
2024/03/05 05:18:45;;;;;;;17.33;7.75;;;;;;;;;;5031414;28;20041;-62
2024/03/05 05:21:17;;;;;;;15.65;7.82;;;;;;;;;;5033179;28;20033;-60
2024/03/05 05:23:58;;;;;;;20.83;8.77;;;;;;;;;;5030296;28;20102;-61
2024/03/05 05:26:23;;;;;;;16.45;8.35;;;;;;;;;;5032573;28;20406;-60
2024/03/05 05:28:59;;;;;;;14.80;7.57;;;;;;;;;;5032097;28;20030;-61
2024/03/05 05:31:28;;;;;;;14.93;8.02;;;;;;;;;;4997609;28;20449;-61
2024/03/05 05:33:55;;;;;;;18.35;8.50;;;;;;;;;;5031003;28;20049;-60
2024/03/05 05:36:20;;;;;;;19.05;8.98;;;;;;;;;;5032567;28;20044;-62
2024/03/05 05:38:48;;;;;;;15.02;8.27;;;;;;;;;;5032714;28;20034;-60
2024/03/05 05:41:15;;;;;;;19.98;9.50;;;;;;;;;;5032448;28;20487;-61
2024/03/05 05:43:41;;;;;;;17.83;9.07;;;;;;;;;;5032477;28;20041;-61
2024/03/05 05:46:14;;;;;;;13.35;7.53;;;;;;;;;;5030865;28;20033;-62
2024/03/05 05:48:42;;;;;;;13.65;7.55;;;;;;;;;;5030999;28;20116;-61
2024/03/05 05:51:10;;;;;;;16.33;8.98;;;;;;;;;;5031639;28;20043;-61
2024/03/05 05:53:36;;;;;;;15.45;7.70;;;;;;;;;;5032256;28;20175;-61
2024/03/05 05:56:01;;;;;;;19.83;8.32;;;;;;;;;;5032069;28;20451;-63
2024/03/05 05:58:27;;;;;;;13.60;6.80;;;;;;;;;;5032484;28;20029;-59
2024/03/05 06:00:53;;;;;;;15.27;8.27;;;;;;;;;;5032096;28;20034;-62
2024/03/05 06:03:19;;;;;;;14.82;8.40;;;;;;;;;;5032036;28;20491;-61
2024/03/05 06:05:46;;;;;;;13.57;8.25;;;;;;;;;;5032013;28;20087;-62
2024/03/05 06:08:14;;;;;;;13.65;8.10;;;;;;;;;;5032123;28;20044;-62
2024/03/05 06:10:43;;;;;;;15.63;8.75;;;;;;;;;;5030716;28;20042;-59
2024/03/05 06:13:09;;;;;;;20.10;9.30;;;;;;;;;;5014010;28;20094;-61
2024/03/05 06:15:38;;;;;;;15.13;7.97;;;;;;;;;;5031557;28;20034;-61
2024/03/05 06:18:07;;;;;;;12.48;6.70;;;;;;;;;;5031747;28;20063;-61
2024/03/05 06:20:33;;;;;;;15.27;7.32;;;;;;;;;;5030255;28;20034;-63
2024/03/05 06:23:00;;;;;;;16.13;8.32;;;;;;;;;;5030294;28;20546;-62
2024/03/05 06:25:29;;;;;;;15.52;7.93;;;;;;;;;;5031385;28;20614;-62
2024/03/05 06:27:56;;;;;;;11.77;6.72;;;;;;;;;;5013660;28;20052;-62
2024/03/05 06:30:22;;;;;;;15.32;7.80;;;;;;;;;;5013616;28;20068;-61
2024/03/05 06:32:49;;;;;;;11.68;7.43;;;;;;;;;;5031286;28;20561;-62
2024/03/05 06:35:15;;;;;;;12.55;7.75;;;;;;;;;;5031830;28;20059;-63
2024/03/05 06:37:46;;;;;;;14.82;8.02;;;;;;;;;;5013565;28;20037;-62
2024/03/05 06:40:13;;;;;;;15.10;8.07;;;;;;;;;;5031781;28;20116;-61
2024/03/05 06:42:40;;;;;;;13.25;7.30;;;;;;;;;;5031620;28;20045;-61
2024/03/05 06:45:07;;;;;;;13.30;6.95;;;;;;;;;;5029797;28;20116;-62
2024/03/05 06:47:43;;;;;;;13.07;7.75;;;;;;;;;;5030588;28;20128;-60
2024/03/05 06:50:19;;;;;;;11.05;7.13;;;;;;;;;;5031394;28;20036;-61
2024/03/05 06:58:16;;;;;;;11.90;6.38;;;;;;;;;;5031377;28;20035;-60
2024/03/05 07:00:47;;;;;;;12.40;6.57;;;;;;;;;;5031205;28;20076;-62
2024/03/05 07:03:13;;;;;;;13.57;6.97;;;;;;;;;;5031454;28;20083;-60
2024/03/05 07:05:39;;;;;;;12.55;6.28;;;;;;;;;;5029755;28;20442;-63
2024/03/05 07:08:08;;;;;;;13.48;7.20;;;;;;;;;;5029671;28;20037;-61
2024/03/05 07:10:34;;;;;;;12.80;6.25;;;;;;;;;;5030945;28;20103;-59
2024/03/05 07:12:59;;;;;;;12.25;6.70;;;;;;;;;;5029675;28;20092;-62
2024/03/05 07:15:25;;;;;;;15.57;8.02;;;;;;;;;;5029755;28;20038;-63
2024/03/05 07:17:51;;;;;;;11.40;7.43;;;;;;;;;;5028925;28;20033;-59
2024/03/05 07:20:22;;;;;;;13.48;7.13;;;;;;;;;;5029603;28;20407;-61
2024/03/05 07:22:51;;;;;;;13.20;6.45;;;;;;;;;;5030441;28;20087;-60
2024/03/05 07:25:17;;;;;;;11.27;6.45;;;;;;;;;;5013015;28;20037;-61
2024/03/05 07:27:44;;;;;;;12.55;6.30;;;;;;;;;;5029142;28;20029;-61
2024/03/05 07:30:15;;;;;;;12.80;6.90;;;;;;;;;;5030856;28;20026;-65
2024/03/05 07:32:48;;;;;;;15.65;7.38;;;;;;;;;;5034958;28;20092;-58
2024/03/05 07:35:15;;;;;;;12.30;6.75;;;;;;;;;;5028195;28;20471;-63
2024/03/05 07:37:44;;;;;;;14.50;6.75;;;;;;;;;;5028336;28;20037;-58
2024/03/05 07:40:22;;;;;;;14.18;7.07;;;;;;;;;;5031380;28;20124;-59
2024/03/05 07:42:50;;;;;;;12.27;6.85;;;;;;;;;;5030680;28;20057;-60
2024/03/05 07:45:16;;;;;;;11.85;6.45;;;;;;;;;;5031327;28;20042;-59
2024/03/05 07:47:45;;;;;;;13.60;7.00;;;;;;;;;;5030560;28;20034;-59
2024/03/05 07:50:14;;;;;;;13.50;7.17;;;;;;;;;;4994688;28;20531;-60
2024/03/05 07:52:44;;;;;;;13.05;7.13;;;;;;;;;;5025921;28;20543;-61
2024/03/05 07:55:13;;;;;;;11.80;6.87;;;;;;;;;;5025736;28;20128;-59
2024/03/05 07:57:39;;;;;;;13.32;7.43;;;;;;;;;;5027628;28;20280;-60
2024/03/05 08:00:14;;;;;;;11.57;6.60;;;;;;;;;;5029022;28;20407;-61
2024/03/05 08:02:46;;;;;;;14.95;6.63;;;;;;;;;;5030177;28;20048;-59
2024/03/05 08:05:17;;;;;;;10.73;6.13;;;;;;;;;;5029922;28;20037;-58
2024/03/05 08:07:43;;;;;;;9.80;5.82;;;;;;;;;;5032731;28;20457;-60
2024/03/05 08:10:09;;;;;;;9.65;6.10;;;;;;;;;;5034329;28;20045;-60
2024/03/05 08:12:36;;;;;;;14.20;6.63;;;;;;;;;;5032366;28;20042;-61
2024/03/05 08:15:12;;;;;;;10.77;5.97;;;;;;;;;;5034170;28;20087;-59
2024/03/05 08:17:38;;;;;;;10.80;6.20;;;;;;;;;;5034055;28;20578;-59
2024/03/05 08:20:05;;;;;;;11.25;5.78;;;;;;;;;;5034142;28;20069;-59
2024/03/05 08:22:30;;;;;;;10.30;6.50;;;;;;;;;;5033743;28;20496;-59
2024/03/05 08:24:56;;;;;;;12.57;6.93;;;;;;;;;;5033392;28;20041;-61
2024/03/05 08:27:22;;;;;;;9.75;6.18;;;;;;;;;;5032076;28;20068;-60
2024/03/05 08:29:50;;;;;;;12.32;5.95;;;;;;;;;;5033964;28;20163;-57
2024/03/05 08:32:17;;;;;;;13.75;6.82;;;;;;;;;;5033230;28;20068;-60
2024/03/05 08:34:43;;;;;;;9.32;6.03;;;;;;;;;;5033809;28;20038;-58
2024/03/05 08:37:11;;;;;;;9.95;5.90;;;;;;;;;;5033445;28;20041;-61
2024/03/05 08:39:39;;;;;;;11.75;6.70;;;;;;;;;;5032458;28;20484;-58
2024/03/05 08:42:05;;;;;;;11.98;6.97;;;;;;;;;;5033674;28;20050;-60
2024/03/05 08:44:31;;;;;;;12.43;6.57;;;;;;;;;;5033729;28;20037;-58
2024/03/05 08:46:57;;;;;;;9.80;6.53;;;;;;;;;;5033446;28;20120;-61
2024/03/05 08:49:25;;;;;;;8.45;5.60;;;;;;;;;;5033226;28;20037;-58
2024/03/05 08:51:54;;;;;;;8.40;5.47;;;;;;;;;;5033285;28;20418;-60
2024/03/05 08:54:20;;;;;;;10.13;6.32;;;;;;;;;;5033471;28;20113;-59
2024/03/05 08:56:47;;;;;;;8.55;4.53;;;;;;;;;;5015595;28;20037;-60
2024/03/05 08:59:13;;;;;;;8.35;5.35;;;;;;;;;;5031873;28;20053;-60
2024/03/05 09:01:38;;;;;;;9.80;5.78;;;;;;;;;;5033029;28;20041;-60
2024/03/05 09:04:06;;;;;;;11.50;5.28;;;;;;;;;;5031787;28;20132;-59
2024/03/05 09:06:32;;;;;;;10.23;5.72;;;;;;;;;;5032918;28;20507;-59
2024/03/05 09:08:58;;;;;;;9.73;5.85;;;;;;;;;;5014259;28;20092;-59
2024/03/05 09:11:23;;;;;;;8.77;5.82;;;;;;;;;;5031789;28;20041;-61
2024/03/05 09:13:49;;;;;;;8.88;5.70;;;;;;;;;;5032991;28;20483;-60
2024/03/05 09:16:15;;;;;;;10.48;5.80;;;;;;;;;;5032711;28;20052;-59
2024/03/05 09:18:40;;;;;;;13.02;6.85;;;;;;;;;;5032624;28;20415;-61
2024/03/05 09:21:07;;;;;;;11.80;5.80;;;;;;;;;;5031334;28;20030;-61
2024/03/05 09:23:33;;;;;;;11.98;7.22;;;;;;;;;;5031102;28;20042;-59
2024/03/05 09:25:58;;;;;;;8.77;4.57;;;;;;;;;;5031351;28;20045;-60
2024/03/05 09:28:24;;;;;;;7.30;4.82;;;;;;;;;;5032505;28;20045;-61
2024/03/05 09:30:49;;;;;;;7.72;4.60;;;;;;;;;;5032762;28;20263;-60
2024/03/05 09:33:15;;;;;;;6.90;4.43;;;;;;;;;;5032101;28;20061;-59
2024/03/05 09:35:41;;;;;;;7.60;3.65;;;;;;;;;;5031559;28;20503;-61
2024/03/05 09:38:07;;;;;;;12.98;3.90;;;;;;;;;;5032232;28;20270;-59
2024/03/05 09:40:34;;;;;;;7.68;4.35;;;;;;;;;;5031137;28;20439;-60
2024/03/05 09:43:03;;;;;;;5.53;3.70;;;;;;;;;;5031135;28;20041;-62
2024/03/05 09:45:30;;;;;;;8.57;4.17;;;;;;;;;;5014556;28;20033;-60
2024/03/05 09:47:58;;;;;;;4.82;3.45;;;;;;;;;;5030828;28;20033;-61
2024/03/05 09:50:24;;;;;;;4.57;2.97;;;;;;;;;;5031161;28;20033;-59
2024/03/05 09:52:50;;;;;;;5.45;3.10;;;;;;;;;;5029765;28;20132;-61
2024/03/05 09:55:26;;;;;;;4.50;2.80;;;;;;;;;;5026974;28;20125;-56
2024/03/05 09:58:07;;;;;;;5.65;2.70;;;;;;;;;;5027160;28;20045;-58
2024/03/05 10:00:34;;;;;;;3.55;2.53;;;;;;;;;;5028938;28;20029;-58
2024/03/05 10:03:01;;;;;;;5.85;3.10;;;;;;;;;;5031278;28;20033;-58
2024/03/05 10:05:27;;;;;;;4.05;2.63;;;;;;;;;;5005808;28;20125;-59
2024/03/05 10:07:53;;;;;;;4.10;2.80;;;;;;;;;;4994144;28;20033;-60
2024/03/05 10:10:20;;;;;;;5.07;3.17;;;;;;;;;;5031702;28;20407;-59
2024/03/05 10:12:45;;;;;;;4.40;2.22;;;;;;;;;;5031802;28;20053;-57
2024/03/05 10:15:17;;;;;;;3.58;2.15;;;;;;;;;;5030595;28;20571;-60
2024/03/05 10:17:52;;;;;;;3.17;2.28;;;;;;;;;;5032081;28;20045;-61
2024/03/05 10:20:28;;;;;;;2.10;1.40;;;;;;;;;;5031993;28;20037;-59
2024/03/05 10:22:54;;;;;;;4.20;2.10;;;;;;;;;;5031743;28;20041;-57
2024/03/05 10:25:20;;;;;;;4.10;1.50;;;;;;;;;;5030397;28;20431;-57
2024/03/05 10:27:50;;;;;;;2.10;1.45;;;;;;;;;;5030276;28;20049;-58
2024/03/05 10:30:24;;;;;;;3.43;2.30;;;;;;;;;;5030147;28;20021;-59
2024/03/05 10:32:57;;;;;;;5.35;3.00;;;;;;;;;;5031483;28;20546;-59
2024/03/05 10:35:23;;;;;;;3.25;1.80;;;;;;;;;;5032319;28;20095;-59
2024/03/05 10:37:55;;;;;;;5.82;3.00;;;;;;;;;;5028411;28;20069;-59
2024/03/05 10:40:22;;;;;;;1.50;1.40;;;;;;;;;;5030348;28;20041;-58
2024/03/05 10:42:50;;;;;;;1.60;1.30;;;;;;;;;;5030232;28;20124;-58
2024/03/05 10:45:16;;;;;;;2.55;1.30;;;;;;;;;;5031636;28;20033;-59
2024/03/05 10:47:42;;;;;;;1.60;1.30;;;;;;;;;;5031047;28;20491;-58
2024/03/05 10:50:13;;;;;;;1.65;1.10;;;;;;;;;;5031703;28;20112;-58
2024/03/05 10:52:40;;;;;;;2.00;1.30;;;;;;;;;;5030839;28;20049;-58
2024/03/05 10:55:11;;;;;;;1.30;1.20;;;;;;;;;;5031619;28;20033;-62
2024/03/05 10:58:13;;;;;;;1.60;1.30;;;;;;;;;;5031025;28;20040;-58
2024/03/05 11:00:27;;;;;;;2.00;1.30;;;;;;;;;;5030920;28;20088;-56
2024/03/05 11:02:55;;;;;;;1.23;1.13;;;;;;;;;;5029757;28;20037;-59
2024/03/05 11:05:20;;;;;;;2.00;1.27;;;;;;;;;;5031634;28;20129;-59
2024/03/05 11:07:47;;;;;;;1.08;1.00;;;;;;;;;;5031277;28;20574;-59
2024/03/05 11:10:13;;;;;;;1.30;1.10;;;;;;;;;;5029886;28;20121;-57
2024/03/05 11:12:40;;;;;;;1.08;0.98;;;;;;;;;;5030650;28;20128;-58
2024/03/05 11:15:12;;;;;;;3.08;1.23;;;;;;;;;;5031438;28;20033;-60
2024/03/05 11:17:39;;;;;;;1.30;1.20;;;;;;;;;;5030676;28;20416;-59
2024/03/05 11:20:08;;;;;;;1.42;1.15;;;;;;;;;;5031221;28;20522;-60
2024/03/05 11:22:34;;;;;;;1.03;0.90;;;;;;;;;;5029542;28;20045;-60
2024/03/05 11:25:00;;;;;;;2.08;1.15;;;;;;;;;;5031453;28;20780;-59
2024/03/05 11:27:28;;;;;;;1.27;1.17;;;;;;;;;;5030924;28;20124;-59
2024/03/05 11:30:09;;;;;;;3.15;1.42;;;;;;;;;;5031310;28;20053;-59
2024/03/05 11:32:37;;;;;;;1.20;1.10;;;;;;;;;;5030857;28;20126;-58
2024/03/05 11:35:04;;;;;;;1.70;1.20;;;;;;;;;;5035306;28;20053;-59
2024/03/05 11:37:44;;;;;;;1.48;1.10;;;;;;;;;;5033281;28;20137;-59
2024/03/05 11:40:12;;;;;;;1.73;1.10;;;;;;;;;;5033728;28;20036;-59
2024/03/05 11:42:43;;;;;;;1.33;1.23;;;;;;;;;;5034533;28;20095;-57
2024/03/05 11:45:08;;;;;;;1.83;1.30;;;;;;;;;;5033624;28;20065;-59
2024/03/05 11:47:35;;;;;;;3.22;1.20;;;;;;;;;;5034727;28;20546;-59
2024/03/05 11:50:04;;;;;;;1.40;1.30;;;;;;;;;;5033609;28;20061;-58
2024/03/05 11:52:30;;;;;;;1.70;1.20;;;;;;;;;;5016366;28;20055;-59
2024/03/05 11:55:05;;;;;;;1.20;1.10;;;;;;;;;;5034829;28;20037;-59
2024/03/05 11:57:32;;;;;;;1.05;1.05;;;;;;;;;;5033874;28;20465;-58
2024/03/05 11:59:58;;;;;;;1.52;1.35;;;;;;;;;;5034714;28;20124;-55
2024/03/05 12:02:24;;;;;;;1.42;1.33;;;;;;;;;;5032446;28;20486;-59
2024/03/05 12:04:50;;;;;;;1.48;1.08;;;;;;;;;;5034640;28;20048;-57
2024/03/05 12:07:16;;;;;;;1.42;1.25;;;;;;;;;;5034073;28;20045;-58
2024/03/05 12:09:43;;;;;;;1.75;1.33;;;;;;;;;;5034477;28;20033;-58
2024/03/05 12:12:10;;;;;;;1.55;1.10;;;;;;;;;;5032833;28;20104;-55
2024/03/05 12:14:51;;;;;;;1.67;1.08;;;;;;;;;;5032947;28;20063;-57
2024/03/05 12:17:18;;;;;;;3.40;1.02;;;;;;;;;;5033905;28;20144;-59
2024/03/05 12:19:46;;;;;;;2.40;1.10;;;;;;;;;;5034517;28;20036;-59
2024/03/05 12:22:13;;;;;;;1.23;1.02;;;;;;;;;;5015807;28;20045;-59
2024/03/05 12:24:38;;;;;;;1.20;1.10;;;;;;;;;;5034275;28;20045;-58
2024/03/05 12:27:05;;;;;;;1.08;1.00;;;;;;;;;;5033609;28;20128;-59
2024/03/05 12:29:36;;;;;;;1.45;1.10;;;;;;;;;;5032698;28;20057;-58
2024/03/05 12:32:06;;;;;;;0.90;0.90;;;;;;;;;;5033305;28;20048;-59
2024/03/05 12:34:32;;;;;;;1.17;1.08;;;;;;;;;;5033979;28;20589;-58
2024/03/05 12:36:58;;;;;;;1.00;1.00;;;;;;;;;;5033568;28;20415;-60
2024/03/05 12:39:24;;;;;;;1.40;1.30;;;;;;;;;;5032570;28;20064;-58
2024/03/05 12:42:09;;;;;;;1.05;1.00;;;;;;;;;;5015883;28;20498;-59
2024/03/05 12:44:35;;;;;;;1.05;1.00;;;;;;;;;;5032343;28;20075;-57
2024/03/05 12:47:05;;;;;;;0.93;0.93;;;;;;;;;;5033557;28;20174;-60
2024/03/05 12:49:31;;;;;;;1.30;1.20;;;;;;;;;;5015769;28;20029;-60
2024/03/05 12:52:04;;;;;;;0.95;0.95;;;;;;;;;;5015443;28;20049;-58
2024/03/05 12:54:29;;;;;;;1.35;1.25;;;;;;;;;;5033283;28;20033;-56
2024/03/05 12:56:55;;;;;;;1.80;1.30;;;;;;;;;;5031801;28;20068;-60
2024/03/05 12:59:21;;;;;;;1.10;1.10;;;;;;;;;;5031938;28;20422;-56
2024/03/05 13:01:47;;;;;;;1.10;1.10;;;;;;;;;;5031830;28;20048;-59
2024/03/05 13:04:13;;;;;;;1.30;1.20;;;;;;;;;;5031858;28;20029;-57
2024/03/05 13:06:39;;;;;;;1.20;1.00;;;;;;;;;;5033189;28;20038;-59
2024/03/05 13:09:05;;;;;;;1.30;1.17;;;;;;;;;;5031707;28;20057;-57
2024/03/05 13:11:31;;;;;;;1.30;1.20;;;;;;;;;;5031475;28;20037;-61
2024/03/05 13:14:04;;;;;;;1.20;1.20;;;;;;;;;;5033197;28;20453;-56
2024/03/05 13:16:30;;;;;;;1.38;1.25;;;;;;;;;;5031646;28;20049;-57
2024/03/05 13:18:55;;;;;;;1.20;1.10;;;;;;;;;;5031854;28;20045;-59
2024/03/05 13:21:21;;;;;;;2.35;1.42;;;;;;;;;;5032749;28;20033;-57
2024/03/05 13:23:47;;;;;;;1.45;1.35;;;;;;;;;;5032895;28;20037;-58
2024/03/05 13:26:12;;;;;;;1.23;1.13;;;;;;;;;;5032601;28;20099;-56
2024/03/05 13:28:38;;;;;;;1.90;1.52;;;;;;;;;;5014853;28;20136;-59
2024/03/05 13:31:05;;;;;;;1.40;1.30;;;;;;;;;;5032714;28;20124;-58
2024/03/05 13:33:31;;;;;;;1.10;1.10;;;;;;;;;;5032484;28;20089;-58
2024/03/05 13:35:58;;;;;;;1.40;1.30;;;;;;;;;;5032422;28;20145;-59
2024/03/05 13:38:24;;;;;;;2.58;1.52;;;;;;;;;;5031043;28;20120;-59
2024/03/05 13:40:52;;;;;;;1.80;1.70;;;;;;;;;;5014564;28;20033;-58
2024/03/05 13:43:22;;;;;;;2.40;1.50;;;;;;;;;;5014758;28;20103;-58
2024/03/05 13:45:48;;;;;;;1.60;1.50;;;;;;;;;;5031020;28;20482;-58
2024/03/05 13:48:14;;;;;;;1.63;1.50;;;;;;;;;;5030966;28;20117;-59
2024/03/05 13:50:48;;;;;;;3.65;1.40;;;;;;;;;;5030952;28;20140;-60
2024/03/05 13:53:14;;;;;;;1.55;1.30;;;;;;;;;;5032306;28;20069;-56
2024/03/05 13:55:40;;;;;;;1.92;1.40;;;;;;;;;;5031668;28;20507;-60
2024/03/05 13:58:05;;;;;;;1.67;1.58;;;;;;;;;;5031080;28;20166;-58
2024/03/05 14:00:31;;;;;;;1.60;1.50;;;;;;;;;;5031769;28;20132;-60
2024/03/05 14:02:57;;;;;;;1.65;1.55;;;;;;;;;;5032323;28;20045;-56
2024/03/05 14:05:22;;;;;;;5.22;2.97;;;;;;;;;;5032505;28;20033;-59
2024/03/05 14:07:48;;;;;;;2.53;2.22;;;;;;;;;;5031689;28;20041;-59
2024/03/05 14:10:15;;;;;;;2.10;1.90;;;;;;;;;;5030367;28;20120;-60
2024/03/05 14:12:41;;;;;;;2.05;1.80;;;;;;;;;;5031220;28;20045;-56
2024/03/05 14:15:09;;;;;;;2.35;1.75;;;;;;;;;;5028722;28;20044;-57
2024/03/05 14:17:36;;;;;;;3.30;2.03;;;;;;;;;;5026470;28;20576;-58
2024/03/05 14:20:07;;;;;;;3.30;2.00;;;;;;;;;;5027929;28;20042;-59
2024/03/05 14:22:34;;;;;;;2.55;1.95;;;;;;;;;;5011730;28;20431;-57
2024/03/05 14:24:59;;;;;;;4.68;1.77;;;;;;;;;;5030911;28;20507;-57
2024/03/05 14:27:25;;;;;;;3.33;2.00;;;;;;;;;;5031252;28;20072;-58
2024/03/05 14:29:52;;;;;;;2.42;1.80;;;;;;;;;;5032069;28;20133;-59
2024/03/05 14:32:20;;;;;;;3.25;2.22;;;;;;;;;;5031438;28;20058;-59
2024/03/05 14:34:45;;;;;;;3.15;2.03;;;;;;;;;;5013895;28;20082;-57
2024/03/05 14:37:12;;;;;;;3.15;2.08;;;;;;;;;;5031427;28;20140;-59
2024/03/05 14:39:38;;;;;;;3.35;2.35;;;;;;;;;;5031886;28;20125;-61
2024/03/05 14:42:04;;;;;;;3.53;2.20;;;;;;;;;;5031489;28;20037;-60